Data for 08/15/2018

Time Sea-Level Adjusted Pressure Absolute Pressure Temperature Relative Humidity Dew Point   
(mb) (inHg) (mb) (inHg) (C) (F) (%) (C) (F)
00:05 1019 30.09 848 25.04 15.6 60.1 33 -0.7 30.8
00:10 1019 30.09 848 25.04 15.9 60.7 33 -0.3 31.4
00:15 1019 30.09 848 25.04 15.9 60.6 33 -0.2 31.7
00:20 1019 30.09 848 25.04 15.9 60.7 33 -0.2 31.7
00:25 1019 30.09 848 25.04 16 60.8 33 -0 32
00:30 1019 30.09 848 25.04 16 60.7 34 0 32.1
00:35 1019 30.09 848 25.04 15.8 60.5 35 0.3 32.6
00:40 1019 30.09 848 25.04 15.7 60.3 35 0.6 33
00:45 1019 30.09 848 25.04 15.5 59.9 36 0.8 33.4
00:50 1019 30.09 848 25.04 15.5 59.9 37 1 33.7
00:55 1019 30.09 848 25.04 15.7 60.2 37 1.2 34.1
01:00 1019 30.09 848 25.04 15.7 60.2 37 1.3 34.3
01:05 1019 30.09 849 25.07 15.6 60.1 37 1.2 34.1
01:10 1019 30.09 849 25.07 15.7 60.3 38 1.5 34.7
01:15 1019 30.09 849 25.07 15.8 60.5 40 2.3 36.1
01:20 1019 30.09 849 25.07 15.9 60.5 40 2.6 36.6
01:25 1019 30.09 849 25.07 15.7 60.2 40 2.1 35.7
01:30 1019 30.09 849 25.07 15.3 59.6 41 2.1 35.9
01:35 1019 30.09 849 25.07 14.9 58.8 40 1.4 34.6
01:40 1020 30.12 849 25.07 14.9 58.7 39 1.1 34.1
01:45 1020 30.12 849 25.07 14.7 58.5 40 1.4 34.5
01:50 1020 30.12 849 25.07 14.7 58.5 41 1.8 35.2
01:55 1020 30.12 849 25.07 14.4 57.9 43 2 35.5
02:00 1020 30.12 849 25.07 13.8 56.8 44 1.7 35.1
02:05 1020 30.12 849 25.07 13.3 56 45 1.7 35.1
02:10 1020 30.12 849 25.07 13.2 55.8 39 -0.2 31.6
02:15 1020 30.12 849 25.07 13.5 56.3 37 -0.7 30.8
02:20 1020 30.12 849 25.07 13.8 56.8 38 -0.2 31.6
02:25 1020 30.12 849 25.07 13.6 56.5 38 -0.4 31.2
02:30 1020 30.12 849 25.07 13.6 56.5 38 -0.5 31.1
02:35 1020 30.12 849 25.07 13.7 56.7 40 0.3 32.5
02:40 1020 30.12 849 25.07 13.3 56 41 0.5 32.8
02:45 1020 30.12 849 25.07 13.1 55.6 43 0.9 33.6
02:50 1020 30.12 849 25.07 12.9 55.3 44 0.9 33.6
02:55 1020 30.12 849 25.07 13 55.4 43 0.6 33.2
03:00 1020 30.12 849 25.07 13.3 55.9 42 0.8 33.4
03:05 1020 30.12 849 25.07 13 55.5 43 0.9 33.7
03:10 1020 30.12 849 25.07 12.9 55.2 41 0.1 32.3
03:15 1020 30.12 849 25.07 13.3 55.9 40 0.1 32.1
03:20 1020 30.12 849 25.07 13.2 55.8 41 0.3 32.6
03:25 1020 30.12 849 25.07 12.8 55.1 44 0.9 33.6
03:30 1020 30.12 849 25.07 12.5 54.6 43 0.2 32.4
03:35 1020 30.12 849 25.07 12.9 55.2 43 0.7 33.2
03:40 1020 30.12 849 25.07 12.8 55 43 0.6 33
03:45 1020 30.12 849 25.07 12.9 55.3 43 0.7 33.3
03:50 1020 30.12 849 25.07 12.7 54.9 44 0.8 33.5
03:55 1020 30.12 849 25.07 12.6 54.6 44 0.8 33.5
04:00 1020 30.12 849 25.07 12.4 54.3 45 0.8 33.5
04:05 1020 30.12 849 25.07 12.4 54.3 44 0.7 33.2
04:10 1020 30.12 849 25.07 12.4 54.4 44 0.6 33.1
04:15 1020 30.12 849 25.07 12.6 54.6 42 0.2 32.3
04:20 1020 30.12 849 25.07 12.8 55 43 0.5 33
04:25 1020 30.12 849 25.07 12.6 54.6 44 0.6 33.1
04:30 1020 30.12 849 25.07 12.3 54.1 45 0.6 33.2
04:35 1020 30.12 849 25.07 12.1 53.8 45 0.7 33.3
04:40 1020 30.12 849 25.07 12 53.6 45 0.6 33.1
04:45 1020 30.12 849 25.07 12.1 53.7 45 0.5 33
04:50 1020 30.12 849 25.07 12.1 53.7 44 0.3 32.6
04:55 1020 30.12 849 25.07 12 53.6 45 0.6 33
05:00 1020 30.12 849 25.07 11.9 53.4 45 0.3 32.5
05:05 1020 30.12 849 25.07 12.1 53.8 44 0.3 32.5
05:10 1020 30.12 849 25.07 12.2 53.9 44 0.4 32.7
05:15 1020 30.12 849 25.07 12.1 53.8 44 0.2 32.3
05:20 1020 30.12 849 25.07 12.2 53.9 43 -0.1 31.8
05:25 1020 30.12 849 25.07 12.3 54.1 43 0.1 32.2
05:30 1020 30.12 849 25.07 12.2 54 44 0.2 32.4
05:35 1020 30.12 849 25.07 12.4 54.4 41 -0.5 31.2
05:40 1020 30.12 849 25.07 13 55.3 41 0.1 32.1
05:45 1020 30.12 849 25.07 13.1 55.5 39 -0.6 31
05:50 1020 30.12 849 25.07 13.3 56 39 -0.1 31.8
05:55 1020 30.12 849 25.07 13.3 55.9 40 -0 32
06:00 1020 30.12 849 25.07 13 55.4 43 0.7 33.3
06:05 1020 30.12 849 25.07 12.7 54.9 43 0.6 33.1
06:10 1020 30.12 849 25.07 12.4 54.4 44 0.6 33
06:15 1020 30.12 850 25.1 12.3 54.1 45 0.7 33.2
06:20 1020 30.12 850 25.1 12.3 54.2 45 0.8 33.5
06:25 1020 30.12 850 25.1 12.4 54.4 44 0.6 33.1
06:30 1020 30.12 850 25.1 12.8 55 43 0.7 33.3
06:35 1021 30.15 850 25.1 12.9 55.2 44 0.9 33.6
06:40 1021 30.15 850 25.1 13.1 55.6 42 0.6 33.1
06:45 1021 30.15 850 25.1 13.4 56.1 42 0.8 33.5
06:50 1021 30.15 850 25.1 13.6 56.5 43 1.2 34.1
06:55 1021 30.15 850 25.1 13.8 56.8 41 0.8 33.5
07:00 1021 30.15 850 25.1 14 57.3 42 1.3 34.3
07:05 1021 30.15 850 25.1 14.3 57.7 43 2 35.5
07:10 1021 30.15 850 25.1 14.5 58.1 41 1.5 34.7
07:15 1021 30.15 850 25.1 14.8 58.7 40 1.5 34.7
07:20 1021 30.15 850 25.1 15.1 59.3 39 1.4 34.5
07:25 1021 30.15 850 25.1 15.6 60 39 1.7 35
07:30 1021 30.15 850 25.1 16.2 61.2 38 2 35.5
07:35 1021 30.15 850 25.1 16.8 62.2 34 0.8 33.4
07:40 1021 30.15 850 25.1 17.1 62.7 35 1.7 35.1
07:45 1021 30.15 850 25.1 16.9 62.5 35 1.4 34.5
07:50 1021 30.15 850 25.1 17.2 63 35 1.8 35.2
07:55 1021 30.15 850 25.1 17.8 64 33 1.6 34.9
08:00 1021 30.15 850 25.1 18 64.4 32 1.1 33.9
08:05 1021 30.15 850 25.1 18.2 64.7 32 1.2 34.2
08:10 1021 30.15 850 25.1 18.9 66 32 2 35.7
08:15 1021 30.15 850 25.1 19 66.2 31 1.7 35.1
08:20 1021 30.15 850 25.1 19.5 67.1 31 2.3 36.1
08:25 1021 30.15 850 25.1 19.6 67.2 32 2.4 36.4
08:30 1021 30.15 850 25.1 20.2 68.4 31 2.7 36.9
08:35 1021 30.15 850 25.1 20.8 69.4 29 2 35.7
08:40 1021 30.15 850 25.1 20.8 69.4 29 2.2 36
08:45 1021 30.15 850 25.1 20.4 68.6 29 2.1 35.8
08:50 1021 30.15 850 25.1 19.9 67.9 30 2 35.5
08:55 1021 30.15 850 25.1 20.7 69.2 28 1.6 34.9
09:00 1021 30.15 850 25.1 20.6 69 29 2 35.6
09:05 1021 30.15 850 25.1 21.4 70.5 26 1.5 34.6
09:10 1021 30.15 850 25.1 21.5 70.7 27 1.8 35.3
09:15 1021 30.15 850 25.1 21.3 70.3 28 2.2 35.9
09:20 1021 30.15 850 25.1 21.7 71 27 2.1 35.8
09:25 1021 30.15 850 25.1 21.4 70.4 27 1.9 35.4
09:30 1021 30.15 850 25.1 21.5 70.8 28 2.3 36.1
09:35 1021 30.15 850 25.1 22.3 72.1 26 2.2 35.9
09:40 1021 30.15 850 25.1 22.6 72.7 26 2.1 35.9
09:45 1021 30.15 850 25.1 22.8 73.1 26 2.5 36.5
09:50 1021 30.15 850 25.1 22.2 72 25 1.7 35
09:55 1021 30.15 850 25.1 22.7 72.8 24 1.5 34.7
10:00 1021 30.15 850 25.1 22.8 73 25 2.2 35.9
10:05 1021 30.15 850 25.1 23.1 73.5 22 0.7 33.3
10:10 1021 30.15 850 25.1 24 75.1 21 0.6 33.1
10:15 1021 30.15 850 25.1 24.3 75.8 22 1.7 35.1
10:20 1021 30.15 850 25.1 23.8 74.8 21 0.4 32.6
10:25 1021 30.15 850 25.1 24.1 75.4 20 0.1 32.2
10:30 1021 30.15 850 25.1 24.6 76.2 19 -0.2 31.6
10:35 1021 30.15 850 25.1 24.9 76.9 21 1.4 34.6
10:40 1021 30.15 850 25.1 24.8 76.7 20 0.8 33.5
10:45 1021 30.15 850 25.1 25.5 77.9 19 0.6 33
10:50 1021 30.15 850 25.1 24.4 75.8 21 0.7 33.3
10:55 1021 30.15 850 25.1 24.6 76.2 20 0.4 32.7
11:00 1021 30.15 850 25.1 25.3 77.6 19 0 32.1
11:05 1021 30.15 850 25.1 25.7 78.2 20 1.2 34.2
11:10 1021 30.15 850 25.1 25.8 78.4 19 0.4 32.8
11:15 1021 30.15 850 25.1 24.9 76.7 19 0 32.1
11:20 1021 30.15 850 25.1 25.2 77.3 19 0.2 32.4
11:25 1021 30.15 850 25.1 25 77 19 0.3 32.5
11:30 1021 30.15 850 25.1 25.8 78.5 18 -0.4 31.3
11:35 1021 30.15 850 25.1 25.3 77.5 20 0.6 33.2
11:40 1021 30.15 850 25.1 25.1 77.1 21 1.3 34.3
11:45 1021 30.15 850 25.1 24.5 76 21 0.7 33.2
11:50 1021 30.15 850 25.1 24.6 76.4 19 -0.1 31.8
11:55 1020 30.12 850 25.1 24.9 76.9 17 -1.3 29.7
12:00 1020 30.12 850 25.1 26.1 78.9 17 -0.7 30.7
12:05 1020 30.12 850 25.1 25.9 78.6 16 -1.8 28.7
12:10 1020 30.12 850 25.1 26.4 79.6 14 -2.7 27.2
12:15 1020 30.12 850 25.1 26.9 80.5 15 -1.7 28.9
12:20 1020 30.12 850 25.1 27 80.6 15 -1.5 29.2
12:25 1020 30.12 850 25.1 26.4 79.5 18 0.2 32.3
12:30 1020 30.12 850 25.1 26.7 80.1 15 -1.5 29.4
12:35 1020 30.12 849 25.07 27.4 81.3 17 0.1 32.2
12:40 1020 30.12 850 25.1 27.4 81.3 15 -1.2 29.8
12:45 1020 30.12 849 25.07 27.4 81.3 15 -1.5 29.3
12:50 1020 30.12 849 25.07 27.2 81 16 -0.3 31.4
12:55 1020 30.12 849 25.07 27.3 81.1 15 -1.1 30
13:00 1020 30.12 849 25.07 27.7 81.9 14 -1.5 29.3
13:05 1020 30.12 849 25.07 27.6 81.7 13 -2.5 27.4
13:10 1020 30.12 849 25.07 27.5 81.6 15 -1.5 29.4
13:15 1020 30.12 849 25.07 27.7 81.9 14 -1.5 29.3
13:20 1020 30.12 849 25.07 27.5 81.5 14 -1.9 28.7
13:25 1020 30.12 849 25.07 27.8 82 14 -2.1 28.1
13:30 1020 30.12 849 25.07 27.9 82.2 14 -2 28.3
13:35 1020 30.12 849 25.07 28.1 82.7 13 -2.6 27.3
13:40 1020 30.12 849 25.07 28.3 83 13 -2 28.4
13:45 1020 30.12 849 25.07 28.7 83.6 13 -2.2 28.1
13:50 1020 30.12 849 25.07 28.8 83.8 13 -2.1 28.2
13:55 1020 30.12 849 25.07 28.7 83.6 13 -1.9 28.6
14:00 1020 30.12 849 25.07 28.8 83.8 14 -1.5 29.2
14:05 1020 30.12 849 25.07 28.4 83.1 14 -1.8 28.7
14:10 1020 30.12 849 25.07 27.8 82 14 -1.8 28.8
14:15 1020 30.12 849 25.07 28.3 82.9 14 -1.7 29
14:20 1020 30.12 849 25.07 28.8 83.8 13 -2.5 27.5
14:25 1020 30.12 849 25.07 28.5 83.3 14 -1.7 28.9
14:30 1020 30.12 849 25.07 29 84.2 13 -1.7 28.9
14:35 1020 30.12 849 25.07 29.1 84.4 13 -2.1 28.2
14:40 1020 30.12 849 25.07 29 84.1 13 -2.2 28
14:45 1020 30.12 849 25.07 29 84.1 12 -2.7 27.2
14:50 1020 30.12 849 25.07 29 84.1 13 -1.8 28.7
14:55 1020 30.12 849 25.07 29.2 84.5 12 -2.5 27.6
15:00 1020 30.12 849 25.07 29.3 84.7 12 -2.4 27.7
15:05 1020 30.12 849 25.07 29 84.1 13 -1.9 28.7
15:10 1020 30.12 849 25.07 28.6 83.6 12 -3.3 26.1
15:15 1020 30.12 849 25.07 29.4 84.9 11 -3.9 25.1
15:20 1020 30.12 849 25.07 29.5 85.1 12 -3 26.5
15:25 1020 30.12 849 25.07 29.3 84.8 12 -3.3 26.1
15:30 1020 30.12 849 25.07 29.5 85 11 -4.2 24.5
15:35 1019 30.09 849 25.07 29.5 85.1 11 -3.7 25.4
15:40 1019 30.09 849 25.07 29.8 85.6 11 -3.5 25.7
15:45 1019 30.09 849 25.07 29 84.2 11 -4.4 24.1
15:50 1019 30.09 849 25.07 28.1 82.7 11 -4.9 23.1
15:55 1019 30.09 849 25.07 28.1 82.6 11 -4.7 23.6
16:00 1019 30.09 849 25.07 28.9 84 11 -4.4 24.2
16:05 1019 30.09 849 25.07 29.6 85.2 11 -3.8 25.1
16:10 1019 30.09 848 25.04 28.8 83.9 10 -5.3 22.4
16:15 1019 30.09 848 25.04 28.6 83.5 11 -4.5 23.9
16:20 1019 30.09 849 25.07 28.9 84 11 -4.5 23.9
16:25 1019 30.09 848 25.04 29 84.1 10 -5 23
16:30 1019 30.09 848 25.04 28.6 83.4 11 -4.5 23.9
16:35 1019 30.09 848 25.04 28.6 83.5 11 -3.9 25.1
16:40 1019 30.09 848 25.04 29.3 84.7 10 -4.7 23.5
16:45 1019 30.09 848 25.04 29.6 85.2 11 -3.7 25.3
16:50 1019 30.09 848 25.04 29.3 84.7 11 -3.9 24.9
16:55 1019 30.09 848 25.04 28.8 83.9 11 -4.1 24.6
17:00 1019 30.09 848 25.04 28.3 82.9 11 -4.9 23.3
17:05 1019 30.09 848 25.04 28.5 83.4 11 -5.1 22.9
17:10 1019 30.09 848 25.04 28.7 83.7 12 -3.7 25.4
17:15 1019 30.09 848 25.04 28.4 83.2 10 -5.8 21.6
17:20 1019 30.09 848 25.04 28.3 83 10 -5.9 21.4
17:25 1019 30.09 848 25.04 28.6 83.4 10 -5.6 22
17:30 1019 30.09 848 25.04 28.7 83.6 11 -4.7 23.6
17:35 1019 30.09 848 25.04 28.5 83.2 12 -3.2 26.3
17:40 1019 30.09 848 25.04 28.3 82.9 11 -4.4 24
17:45 1019 30.09 848 25.04 28 82.3 11 -4.6 23.7
17:50 1019 30.09 848 25.04 27.8 82.1 12 -3.7 25.3
17:55 1019 30.09 848 25.04 27.6 81.7 12 -4.3 24.2
18:00 1019 30.09 848 25.04 27.6 81.6 11 -4.9 23.2
18:05 1019 30.09 848 25.04 27.5 81.5 12 -4.1 24.6
18:10 1019 30.09 848 25.04 27.4 81.2 12 -4.4 24.1
18:15 1019 30.09 848 25.04 27.2 81 13 -3.7 25.4
18:20 1019 30.09 848 25.04 27.1 80.8 12 -4.3 24.2
18:25 1019 30.09 848 25.04 27.1 80.7 13 -3.9 25
18:30 1019 30.09 848 25.04 27 80.6 15 -1.9 28.5
18:35 1019 30.09 848 25.04 26.8 80.2 15 -1.3 29.6
18:40 1019 30.09 848 25.04 26.6 79.8 15 -1.7 29
18:45 1019 30.09 848 25.04 26.3 79.3 15 -2.2 28.1
18:50 1019 30.09 848 25.04 26.1 78.9 15 -2 28.4
18:55 1019 30.09 848 25.04 25.8 78.4 15 -2.3 27.9
19:00 1019 30.09 848 25.04 25.6 78 15 -3 26.5
19:05 1019 30.09 848 25.04 25.6 78 14 -3.3 26.1
19:10 1019 30.09 848 25.04 25.6 78.1 14 -3.5 25.7
19:15 1019 30.09 848 25.04 25.6 78 17 -1 30.2
19:20 1019 30.09 848 25.04 25.3 77.5 21 2 35.5
19:25 1019 30.09 848 25.04 24.5 76.2 25 3.4 38.1
19:30 1019 30.09 848 25.04 23.8 74.9 28 4.2 39.6
19:35 1019 30.09 848 25.04 23.1 73.5 27 3.2 37.8
19:40 1019 30.09 849 25.07 22.4 72.3 28 3.3 37.9
19:45 1019 30.09 849 25.07 21.7 71.1 31 3.8 38.9
19:50 1019 30.09 849 25.07 21 69.9 30 2.9 37.3
19:55 1020 30.12 849 25.07 20.4 68.7 30 2.3 36.2
20:00 1020 30.12 849 25.07 19.9 67.9 31 2.4 36.3
20:05 1020 30.12 849 25.07 19.4 67 31 2 35.6
20:10 1020 30.12 849 25.07 19.4 66.9 24 -1.4 29.5
20:15 1020 30.12 849 25.07 20.1 68.2 24 -0.9 30.4
20:20 1020 30.12 849 25.07 20 68 24 -1.2 29.9
20:25 1020 30.12 849 25.07 19.7 67.5 23 -1.6 29.1
20:30 1020 30.12 849 25.07 19.7 67.4 24 -1.6 29.2
20:35 1020 30.12 849 25.07 19.6 67.2 23 -2 28.5
20:40 1020 30.12 849 25.07 19.5 67.1 23 -2 28.5
20:45 1020 30.12 849 25.07 19.4 66.9 23 -2.1 28.2
20:50 1020 30.12 849 25.07 19.4 66.8 23 -2.2 28.1
20:55 1020 30.12 849 25.07 19.2 66.5 23 -2.2 28
21:00 1020 30.12 849 25.07 19 66.2 23 -2.6 27.3
21:05 1020 30.12 849 25.07 19.3 66.7 21 -3.4 25.9
21:10 1020 30.12 849 25.07 19.6 67.3 21 -3.2 26.3
21:15 1020 30.12 850 25.1 19.8 67.6 21 -3.2 26.2
21:20 1020 30.12 850 25.1 19.9 67.7 21 -3.3 26.1
21:25 1020 30.12 850 25.1 19.6 67.2 21 -3 26.7
21:30 1020 30.12 850 25.1 19.2 66.5 22 -3.2 26.3
21:35 1020 30.12 850 25.1 18.9 66.1 22 -3.3 26.1
21:40 1020 30.12 850 25.1 18.9 66 22 -3.5 25.8
21:45 1020 30.12 850 25.1 19 66.2 21 -3.5 25.7
21:50 1021 30.15 850 25.1 18.9 66.1 22 -3.3 26
21:55 1020 30.12 850 25.1 18.9 66 22 -2.9 26.7
22:00 1021 30.15 850 25.1 18.8 65.8 22 -3 26.7
22:05 1021 30.15 850 25.1 18.6 65.6 22 -3.4 26
22:10 1021 30.15 850 25.1 18.6 65.5 22 -3.5 25.7
22:15 1021 30.15 850 25.1 18.6 65.5 21 -3.8 25.1
22:20 1021 30.15 850 25.1 18.9 66 24 -2.1 28.2
22:25 1021 30.15 850 25.1 18.3 65 23 -3.2 26.2
22:30 1021 30.15 850 25.1 18.6 65.4 21 -3.9 25
22:35 1021 30.15 850 25.1 18.8 65.9 21 -3.5 25.6
22:40 1021 30.15 850 25.1 18.7 65.7 21 -3.9 25
22:45 1021 30.15 850 25.1 18.7 65.6 22 -3.3 26.1
22:50 1021 30.15 850 25.1 18.3 65 22 -3.6 25.6
22:55 1021 30.15 850 25.1 18.1 64.6 23 -3.5 25.7
23:00 1021 30.15 850 25.1 18.1 64.5 23 -3.5 25.7
23:05 1021 30.15 850 25.1 17.9 64.2 23 -3.3 26
23:10 1021 30.15 850 25.1 17.7 63.9 24 -3.2 26.3
23:15 1021 30.15 850 25.1 17.6 63.6 24 -3.3 26
23:20 1021 30.15 850 25.1 17.7 63.9 23 -3.3 26
23:25 1021 30.15 850 25.1 17.6 63.6 24 -3.3 26.1
23:30 1021 30.15 850 25.1 17.3 63.2 24 -3.1 26.4
23:35 1021 30.15 850 25.1 17.3 63.2 24 -3.3 26.1
23:40 1021 30.15 850 25.1 17.5 63.6 23 -3.6 25.5
23:45 1021 30.15 850 25.1 17.9 64.3 23 -3.2 26.3
23:50 1021 30.15 850 25.1 18 64.3 23 -3.3 26.1
23:55 1021 30.15 850 25.1 17.9 64.1 24 -3 26.6
24:00 1021 30.15 850 25.1 17.8 64.1 23 -3.5 25.7